WetterOnline ( https://www.wetteronline.de )

Wetter aktuell Greifswalder Bodden

Aktuelles Wetter: Greifswalder Oie (12m)

6-stündlich | Neueste Meldungen
Ortszeit Temperatur Wetter
Sa, 16.10. 8:00 9.7° C wolkig
Sa, 16.10. 2:00 10.3° C leicht bewölkt
Fr, 15.10. 20:00 11.8° C wolkenlos
Fr, 15.10. 14:00 11.3° C bedeckt
Fr, 15.10. 8:00 12.6° C bedeckt
Fr, 15.10. 2:00 12.3° C bedeckt
Do, 14.10. 20:00 12.2° C bewölkt
Do, 14.10. 14:00 13.3° C bewölkt
Ortszeit Temperatur Wetter
Sa, 16.10. 10:00 9.9° C wolkenlos
Sa, 16.10. 9:50 9.9° C wolkenlos
Sa, 16.10. 9:40 9.9° C wolkenlos
Sa, 16.10. 9:30 9.8° C fast wolkenlos
Sa, 16.10. 9:20 9.8° C fast wolkenlos
Sa, 16.10. 9:10 9.9° C fast wolkenlos
Sa, 16.10. 9:00 10.3° C wolkenlos
Sa, 16.10. 8:30 9.8° C wolkenlos
Sa, 16.10. 8:00 9.7° C wolkig
Sa, 16.10. 7:30 9.7° C leicht bewölkt
Sa, 16.10. 7:00 9.8° C fast wolkenlos
Ortszeit Relative Feuchte Sichtweite
Sa, 16.10. 8:00 77% 35 km
Sa, 16.10. 2:00 80% 30 km
Fr, 15.10. 20:00 75% 35 km
Fr, 15.10. 14:00 86% 40 km
Fr, 15.10. 8:00 85% 18 km
Fr, 15.10. 2:00 84% 35 km
Do, 14.10. 20:00 96% 50 km
Do, 14.10. 14:00 87% 45 km
Ortszeit Relative Feuchte Sichtweite
Sa, 16.10. 10:00 79% 30 km
Sa, 16.10. 9:50 79% -
Sa, 16.10. 9:40 80% -
Sa, 16.10. 9:30 78% 35 km
Sa, 16.10. 9:20 78% -
Sa, 16.10. 9:10 79% -
Sa, 16.10. 9:00 74% 35 km
Sa, 16.10. 8:30 75% 35 km
Sa, 16.10. 8:00 77% 35 km
Sa, 16.10. 7:30 77% 40 km
Sa, 16.10. 7:00 77% 40 km
Ortszeit Niederschlagsmenge Niederschlagsart
Sa, 16.10. 8:00 0.0 l/m2 in 12 Std. -
Sa, 16.10. 2:00 0.0 l/m2 in 6 Std. -
Fr, 15.10. 20:00 5 l/m2 in 12 Std. Regen
Fr, 15.10. 14:00 5 l/m2 in 6 Std. Regen
Fr, 15.10. 8:00 0.0 l/m2 in 12 Std. -
Fr, 15.10. 2:00 0.0 l/m2 in 6 Std. -
Do, 14.10. 20:00 0.6 l/m2 in 12 Std. Regen
Do, 14.10. 14:00 0.0 l/m2 in 6 Std. -
Ortszeit Niederschlagsmenge Niederschlagsart
Sa, 16.10. 10:00 0.0 l/m2 in 1 Std. -
Sa, 16.10. 9:50 keine Meldung -
Sa, 16.10. 9:40 keine Meldung -
Sa, 16.10. 9:30 0.0 l/m2 in 1 Std. -
Sa, 16.10. 9:20 keine Meldung -
Sa, 16.10. 9:10 keine Meldung -
Sa, 16.10. 9:00 0.0 l/m2 in 1 Std. -
Sa, 16.10. 8:30 0.0 l/m2 in 1 Std. -
Sa, 16.10. 8:00 0.0 l/m2 in 1 Std. -
Sa, 16.10. 7:30 0.0 l/m2 in 1 Std. -
Sa, 16.10. 7:00 0.0 l/m2 in 1 Std. -
Ortszeit Stärke Spitze Richtung
km/h Bft. km/h Grad Sektor
Sa, 16.10. 8:00 29 5 54 290° W
Sa, 16.10. 2:00 40 6 54 290° W
Fr, 15.10. 20:00 39 6 61 290° W
Fr, 15.10. 14:00 40 6 65 260° W
Fr, 15.10. 8:00 47 6 61 220° SW
Fr, 15.10. 2:00 48 6 63 240° SW
Do, 14.10. 20:00 30 5 46 240° SW
Do, 14.10. 14:00 32 5 43 240° SW
Ortszeit Stärke Spitze Richtung
km/h Bft. km/h Grad Sektor
Sa, 16.10. 10:00 29 5 40 260° W
Sa, 16.10. 9:50 29 5 - 260° W
Sa, 16.10. 9:40 31 5 - 260° W
Sa, 16.10. 9:30 31 5 39 260° W
Sa, 16.10. 9:20 31 5 - 260° W
Sa, 16.10. 9:10 31 5 - 260° W
Sa, 16.10. 9:00 33 5 44 290° W
Sa, 16.10. 8:30 32 5 40 290° W
Sa, 16.10. 8:00 29 5 40 290° W
Sa, 16.10. 7:30 32 5 40 290° W
Sa, 16.10. 7:00 33 5 44 290° W
Ortszeit Untergrenze Bedeckung Gattung
total tief tief mittel hoch
Sa, 16.10. 8:00 1440 m 5/8 5/8 - - -
Sa, 16.10. 2:00 750 m 2/8 2/8 - - -
Fr, 15.10. 20:00 9000 m 0/8 0/8 - - -
Fr, 15.10. 14:00 3300 m 8/8 8/8 - - -
Fr, 15.10. 8:00 540 m 8/8 8/8 - - -
Fr, 15.10. 2:00 1500 m 8/8 8/8 - - -
Do, 14.10. 20:00 690 m 7/8 7/8 - - -
Do, 14.10. 14:00 1440 m 8/8 6/8 - - -
Ortszeit Bedeckungsgrad in Achtel und Wolkenuntergrenze
Sa, 16.10. 10:00 keine Wolken
Sa, 16.10. 9:50 keine Wolken
Sa, 16.10. 9:40 keine Wolken
Sa, 16.10. 9:30 2(8700m)
Sa, 16.10. 9:20 2(8700m)
Sa, 16.10. 9:10 2(8700m)
Sa, 16.10. 9:00 keine Wolken
Sa, 16.10. 8:30 keine Wolken
Sa, 16.10. 8:00 5(1440m)
Sa, 16.10. 7:30 3(1470m)
Sa, 16.10. 7:00 1(9000m) 3(9000m)
Ortszeit Luftdruck NN (hPa) Tendenz (hPa in 3 Std.)
Sa, 16.10. 8:00 1017 + 0,9
Sa, 16.10. 2:00 1015 + 1,3
Fr, 15.10. 20:00 1012 + 2,6
Fr, 15.10. 14:00 1008 + 1,9
Fr, 15.10. 8:00 1006 - 2,4
Fr, 15.10. 2:00 1011 - 1,9
Do, 14.10. 20:00 1014 - 1,0
Do, 14.10. 14:00 1016 - 0,9
Ortszeit Luftdruck NN (hPa) Tendenz (hPa in 3 Std.)
Sa, 16.10. 10:00 1018 + 1,3
Sa, 16.10. 9:50 1018 keine Meldung
Sa, 16.10. 9:40 1018 keine Meldung
Sa, 16.10. 9:30 1018 + 1,2
Sa, 16.10. 9:20 1018 keine Meldung
Sa, 16.10. 9:10 1018 keine Meldung
Sa, 16.10. 9:00 1018 + 1,0
Sa, 16.10. 8:30 1017 + 1,1
Sa, 16.10. 8:00 1017 + 0,9
Sa, 16.10. 7:30 1017 + 1,3
Sa, 16.10. 7:00 1017 + 1,2
Ortszeit Schneehöhe (cm)
Sa, 16.10. 8:00 0
Sa, 16.10. 2:00 0
Fr, 15.10. 20:00 0
Fr, 15.10. 14:00 0
Fr, 15.10. 8:00 0
Fr, 15.10. 2:00 0
Do, 14.10. 20:00 0
Do, 14.10. 14:00 0
Ortszeit Schneehöhe (cm)
Sa, 16.10. 10:00 0
Sa, 16.10. 9:50 0
Sa, 16.10. 9:40 0
Sa, 16.10. 9:30 0
Sa, 16.10. 9:20 0
Sa, 16.10. 9:10 0
Sa, 16.10. 9:00 0
Sa, 16.10. 8:30 0
Sa, 16.10. 8:00 0
Sa, 16.10. 7:30 0
Sa, 16.10. 7:00 0
Link zu dieser Seite / Seite empfehlen

Das Wetter in ...